Terminal Aerodrome Forecast
Issued by NWS

Home | Current Version | Previous Version | Text Only | Print | Product List | Glossary On
Versions: 1 2 3 4 5 6 7 8 9 10 11 12
065
FTUS44 KBMX 031737
TAFTCL
TAF
KTCL 031737Z 0318/0418 03004KT P6SM -RA OVC100
     FM041200 08008KT 5SM -RA BR OVC040=

USA.gov is the U.S. government's official web portal to all federal, state and local government web resources and services.